sensor_id;sensor_type;location;lat;lon;timestamp;pressure;altitude;pressure_sealevel;temperature;humidity
9899;BME280;4988;49.238;6.698;2023-08-12T00:00:01;99416.19;;;21.58;100.00
9899;BME280;4988;49.238;6.698;2023-08-12T00:02:37;99403.25;;;21.50;100.00
9899;BME280;4988;49.238;6.698;2023-08-12T00:05:02;99407.19;;;21.58;100.00
9899;BME280;4988;49.238;6.698;2023-08-12T00:07:29;99414.50;;;21.67;100.00
9899;BME280;4988;49.238;6.698;2023-08-12T00:09:54;99438.16;;;21.65;100.00
9899;BME280;4988;49.238;6.698;2023-08-12T00:12:21;99441.50;;;21.78;100.00
9899;BME280;4988;49.238;6.698;2023-08-12T00:14:46;99446.66;;;21.81;100.00
9899;BME280;4988;49.238;6.698;2023-08-12T00:17:12;99465.16;;;21.55;100.00
9899;BME280;4988;49.238;6.698;2023-08-12T00:19:37;99453.97;;;21.39;100.00
9899;BME280;4988;49.238;6.698;2023-08-12T00:22:02;99441.88;;;21.21;100.00
9899;BME280;4988;49.238;6.698;2023-08-12T00:24:29;99455.25;;;21.23;100.00
9899;BME280;4988;49.238;6.698;2023-08-12T00:26:55;99450.97;;;21.20;100.00
9899;BME280;4988;49.238;6.698;2023-08-12T00:29:21;99448.41;;;21.19;100.00
9899;BME280;4988;49.238;6.698;2023-08-12T00:31:46;99442.03;;;21.30;100.00
9899;BME280;4988;49.238;6.698;2023-08-12T00:34:11;99445.63;;;21.30;100.00
9899;BME280;4988;49.238;6.698;2023-08-12T00:36:37;99455.25;;;21.23;100.00
9899;BME280;4988;49.238;6.698;2023-08-12T00:39:02;99460.38;;;21.37;100.00
9899;BME280;4988;49.238;6.698;2023-08-12T00:41:29;99484.81;;;21.47;100.00
9899;BME280;4988;49.238;6.698;2023-08-12T00:43:54;99496.41;;;21.38;100.00
9899;BME280;4988;49.238;6.698;2023-08-12T00:46:19;99476.84;;;21.13;100.00
9899;BME280;4988;49.238;6.698;2023-08-12T00:48:45;99470.03;;;20.98;100.00
9899;BME280;4988;49.238;6.698;2023-08-12T00:51:10;99461.72;;;20.89;100.00
9899;BME280;4988;49.238;6.698;2023-08-12T00:53:36;99467.38;;;20.86;100.00
9899;BME280;4988;49.238;6.698;2023-08-12T00:56:02;99476.00;;;20.80;100.00
9899;BME280;4988;49.238;6.698;2023-08-12T00:58:27;99459.28;;;20.75;100.00
9899;BME280;4988;49.238;6.698;2023-08-12T01:00:53;99431.72;;;20.81;100.00
9899;BME280;4988;49.238;6.698;2023-08-12T01:03:18;99428.50;;;20.87;100.00
9899;BME280;4988;49.238;6.698;2023-08-12T01:05:45;99424.59;;;20.80;100.00
9899;BME280;4988;49.238;6.698;2023-08-12T01:08:11;99397.75;;;20.88;100.00
9899;BME280;4988;49.238;6.698;2023-08-12T01:10:37;99394.97;;;21.00;100.00
9899;BME280;4988;49.238;6.698;2023-08-12T01:13:19;99381.03;;;21.04;100.00
9899;BME280;4988;49.238;6.698;2023-08-12T01:15:49;99374.50;;;21.07;100.00
9899;BME280;4988;49.238;6.698;2023-08-12T01:18:17;99374.97;;;21.12;100.00
9899;BME280;4988;49.238;6.698;2023-08-12T01:20:43;99374.72;;;21.15;100.00
9899;BME280;4988;49.238;6.698;2023-08-12T01:23:14;99374.31;;;21.20;100.00
9899;BME280;4988;49.238;6.698;2023-08-12T01:25:41;99367.78;;;21.23;100.00
9899;BME280;4988;49.238;6.698;2023-08-12T01:28:07;99362.81;;;21.28;100.00
9899;BME280;4988;49.238;6.698;2023-08-12T01:30:36;99355.13;;;21.33;100.00
9899;BME280;4988;49.238;6.698;2023-08-12T01:33:44;99349.00;;;21.31;100.00
9899;BME280;4988;49.238;6.698;2023-08-12T01:36:18;99342.19;;;21.36;100.00
9899;BME280;4988;49.238;6.698;2023-08-12T01:38:45;99350.31;;;21.36;100.00
9899;BME280;4988;49.238;6.698;2023-08-12T01:41:12;99346.47;;;21.39;100.00
9899;BME280;4988;49.238;6.698;2023-08-12T01:43:40;99339.06;;;21.41;100.00
9899;BME280;4988;49.238;6.698;2023-08-12T01:46:06;99342.03;;;21.38;100.00
9899;BME280;4988;49.238;6.698;2023-08-12T01:48:31;99344.75;;;21.38;100.00
9899;BME280;4988;49.238;6.698;2023-08-12T01:50:56;99339.34;;;21.38;100.00
9899;BME280;4988;49.238;6.698;2023-08-12T01:53:21;99345.03;;;21.35;100.00
9899;BME280;4988;49.238;6.698;2023-08-12T01:55:49;99340.47;;;21.35;100.00
9899;BME280;4988;49.238;6.698;2023-08-12T01:58:15;99328.78;;;21.35;100.00
9899;BME280;4988;49.238;6.698;2023-08-12T02:00:40;99330.75;;;21.33;100.00
9899;BME280;4988;49.238;6.698;2023-08-12T02:03:05;99329.03;;;21.32;100.00
9899;BME280;4988;49.238;6.698;2023-08-12T02:05:32;99322.63;;;21.33;100.00
9899;BME280;4988;49.238;6.698;2023-08-12T02:07:57;99329.31;;;21.29;100.00
9899;BME280;4988;49.238;6.698;2023-08-12T02:10:23;99326.47;;;21.30;100.00
9899;BME280;4988;49.238;6.698;2023-08-12T02:12:48;99317.97;;;21.35;100.00
9899;BME280;4988;49.238;6.698;2023-08-12T02:15:13;99312.00;;;21.41;100.00
9899;BME280;4988;49.238;6.698;2023-08-12T02:17:39;99321.94;;;21.41;100.00
9899;BME280;4988;49.238;6.698;2023-08-12T02:20:04;99315.94;;;21.37;100.00
9899;BME280;4988;49.238;6.698;2023-08-12T02:22:30;99321.50;;;21.35;100.00
9899;BME280;4988;49.238;6.698;2023-08-12T02:24:55;99316.97;;;21.36;100.00
9899;BME280;4988;49.238;6.698;2023-08-12T02:27:21;99316.97;;;21.36;100.00
9899;BME280;4988;49.238;6.698;2023-08-12T02:29:46;99319.19;;;21.31;100.00
9899;BME280;4988;49.238;6.698;2023-08-12T02:32:11;99311.38;;;21.28;100.00
9899;BME280;4988;49.238;6.698;2023-08-12T02:34:36;99315.31;;;21.24;100.00
9899;BME280;4988;49.238;6.698;2023-08-12T02:37:02;99315.84;;;21.17;100.00
9899;BME280;4988;49.238;6.698;2023-08-12T02:39:27;99314.69;;;21.10;100.00
9899;BME280;4988;49.238;6.698;2023-08-12T02:41:52;99308.28;;;21.11;100.00
9899;BME280;4988;49.238;6.698;2023-08-12T02:44:18;99309.53;;;21.07;100.00
9899;BME280;4988;49.238;6.698;2023-08-12T02:46:43;99306.97;;;21.05;100.00
9899;BME280;4988;49.238;6.698;2023-08-12T02:49:08;99300.44;;;21.08;100.00
9899;BME280;4988;49.238;6.698;2023-08-12T02:51:34;99295.28;;;21.05;100.00
9899;BME280;4988;49.238;6.698;2023-08-12T02:53:59;99300.69;;;21.05;100.00
9899;BME280;4988;49.238;6.698;2023-08-12T02:56:24;99307.13;;;21.04;100.00
9899;BME280;4988;49.238;6.698;2023-08-12T02:58:50;99311.78;;;21.02;100.00
9899;BME280;4988;49.238;6.698;2023-08-12T03:01:15;99298.06;;;20.94;100.00
9899;BME280;4988;49.238;6.698;2023-08-12T03:03:41;99291.81;;;20.93;100.00
9899;BME280;4988;49.238;6.698;2023-08-12T03:06:06;99303.22;;;20.97;100.00
9899;BME280;4988;49.238;6.698;2023-08-12T03:08:31;99295.50;;;20.92;100.00
9899;BME280;4988;49.238;6.698;2023-08-12T03:11:01;99294.16;;;20.86;100.00
9899;BME280;4988;49.238;6.698;2023-08-12T03:13:27;99285.81;;;20.89;100.00
9899;BME280;4988;49.238;6.698;2023-08-12T03:15:53;99287.00;;;20.97;100.00
9899;BME280;4988;49.238;6.698;2023-08-12T03:18:18;99287.00;;;20.97;100.00
9899;BME280;4988;49.238;6.698;2023-08-12T03:20:43;99284.38;;;20.95;100.00
9899;BME280;4988;49.238;6.698;2023-08-12T03:23:09;99280.97;;;20.93;100.00
9899;BME280;4988;49.238;6.698;2023-08-12T03:25:34;99279.50;;;20.89;100.00
9899;BME280;4988;49.238;6.698;2023-08-12T03:27:59;99277.41;;;20.93;100.00
9899;BME280;4988;49.238;6.698;2023-08-12T03:30:25;99287.97;;;20.96;100.00
9899;BME280;4988;49.238;6.698;2023-08-12T03:32:51;99291.41;;;20.98;100.00
9899;BME280;4988;49.238;6.698;2023-08-12T03:35:17;99274.97;;;20.89;100.00
9899;BME280;4988;49.238;6.698;2023-08-12T03:37:43;99272.34;;;20.78;100.00
9899;BME280;4988;49.238;6.698;2023-08-12T03:40:08;99273.72;;;20.72;100.00
9899;BME280;4988;49.238;6.698;2023-08-12T03:42:34;99272.88;;;20.72;100.00
9899;BME280;4988;49.238;6.698;2023-08-12T03:44:59;99273.19;;;20.79;100.00
9899;BME280;4988;49.238;6.698;2023-08-12T03:47:24;99286.47;;;20.82;100.00
9899;BME280;4988;49.238;6.698;2023-08-12T03:49:50;99282.66;;;20.84;100.00
9899;BME280;4988;49.238;6.698;2023-08-12T03:52:15;99277.03;;;20.76;100.00
9899;BME280;4988;49.238;6.698;2023-08-12T03:54:40;99273.09;;;20.69;100.00
9899;BME280;4988;49.238;6.698;2023-08-12T03:57:06;99268.81;;;20.66;100.00
9899;BME280;4988;49.238;6.698;2023-08-12T03:59:31;99274.63;;;20.62;100.00
9899;BME280;4988;49.238;6.698;2023-08-12T04:01:56;99267.25;;;20.64;100.00
9899;BME280;4988;49.238;6.698;2023-08-12T04:04:23;99263.75;;;20.73;100.00
9899;BME280;4988;49.238;6.698;2023-08-12T04:06:48;99269.16;;;20.73;100.00
9899;BME280;4988;49.238;6.698;2023-08-12T04:09:19;99261.53;;;20.78;100.00
9899;BME280;4988;49.238;6.698;2023-08-12T04:11:45;99268.91;;;20.76;100.00
9899;BME280;4988;49.238;6.698;2023-08-12T04:14:11;99269.56;;;20.68;100.00
9899;BME280;4988;49.238;6.698;2023-08-12T04:16:38;99272.44;;;20.55;100.00
9899;BME280;4988;49.238;6.698;2023-08-12T04:19:04;99263.41;;;20.45;100.00
9899;BME280;4988;49.238;6.698;2023-08-12T04:21:29;99270.53;;;20.46;100.00
9899;BME280;4988;49.238;6.698;2023-08-12T04:23:55;99265.13;;;20.46;100.00
9899;BME280;4988;49.238;6.698;2023-08-12T04:26:20;99266.56;;;20.50;100.00
9899;BME280;4988;49.238;6.698;2023-08-12T04:28:46;99259.59;;;20.48;100.00
9899;BME280;4988;49.238;6.698;2023-08-12T04:31:11;99264.00;;;20.49;100.00
9899;BME280;4988;49.238;6.698;2023-08-12T04:33:36;99265.13;;;20.46;100.00
9899;BME280;4988;49.238;6.698;2023-08-12T04:36:01;99254.41;;;20.45;100.00
9899;BME280;4988;49.238;6.698;2023-08-12T04:38:27;99251.63;;;20.46;100.00
9899;BME280;4988;49.238;6.698;2023-08-12T04:40:53;99252.31;;;20.48;100.00
9899;BME280;4988;49.238;6.698;2023-08-12T04:43:19;99248.78;;;20.48;100.00
9899;BME280;4988;49.238;6.698;2023-08-12T04:45:45;99255.47;;;20.32;100.00
9899;BME280;4988;49.238;6.698;2023-08-12T04:48:11;99265.59;;;20.19;100.00
9899;BME280;4988;49.238;6.698;2023-08-12T04:50:37;99278.06;;;20.10;100.00
9899;BME280;4988;49.238;6.698;2023-08-12T04:53:04;99276.59;;;20.06;100.00
9899;BME280;4988;49.238;6.698;2023-08-12T04:55:29;99272.22;;;19.93;100.00
9899;BME280;4988;49.238;6.698;2023-08-12T04:57:55;99268.06;;;19.89;100.00
9899;BME280;4988;49.238;6.698;2023-08-12T05:00:22;99274.41;;;20.00;100.00
9899;BME280;4988;49.238;6.698;2023-08-12T05:02:48;99267.25;;;20.10;100.00
9899;BME280;4988;49.238;6.698;2023-08-12T05:05:13;99273.63;;;20.09;100.00
9899;BME280;4988;49.238;6.698;2023-08-12T05:07:38;99270.22;;;20.07;100.00
9899;BME280;4988;49.238;6.698;2023-08-12T05:10:04;99272.91;;;20.07;100.00
9899;BME280;4988;49.238;6.698;2023-08-12T05:12:30;99268.34;;;20.07;100.00
9899;BME280;4988;49.238;6.698;2023-08-12T05:14:55;99259.72;;;20.14;100.00
9899;BME280;4988;49.238;6.698;2023-08-12T05:17:20;99259.59;;;20.15;100.00
9899;BME280;4988;49.238;6.698;2023-08-12T05:19:46;99258.22;;;20.21;100.00
9899;BME280;4988;49.238;6.698;2023-08-12T05:22:11;99246.59;;;20.20;100.00
9899;BME280;4988;49.238;6.698;2023-08-12T05:24:37;99249.75;;;20.25;100.00
9899;BME280;4988;49.238;6.698;2023-08-12T05:27:02;99252.78;;;20.32;100.00
9899;BME280;4988;49.238;6.698;2023-08-12T05:29:29;99258.06;;;20.34;100.00
9899;BME280;4988;49.238;6.698;2023-08-12T05:31:54;99249.22;;;20.32;100.00
9899;BME280;4988;49.238;6.698;2023-08-12T05:34:20;99259.75;;;20.35;100.00
9899;BME280;4988;49.238;6.698;2023-08-12T05:36:45;99268.38;;;20.40;100.00
9899;BME280;4988;49.238;6.698;2023-08-12T05:39:10;99285.03;;;20.24;100.00
9899;BME280;4988;49.238;6.698;2023-08-12T05:41:36;99295.00;;;20.12;100.00
9899;BME280;4988;49.238;6.698;2023-08-12T05:44:01;99288.16;;;20.08;100.00
9899;BME280;4988;49.238;6.698;2023-08-12T05:46:26;99283.72;;;20.07;100.00
9899;BME280;4988;49.238;6.698;2023-08-12T05:48:52;99294.78;;;20.04;100.00
9899;BME280;4988;49.238;6.698;2023-08-12T05:51:17;99294.53;;;20.07;100.00
9899;BME280;4988;49.238;6.698;2023-08-12T05:53:42;99283.22;;;20.13;100.00
9899;BME280;4988;49.238;6.698;2023-08-12T05:56:08;99290.06;;;20.17;100.00
9899;BME280;4988;49.238;6.698;2023-08-12T05:58:33;99299.91;;;20.18;100.00
9899;BME280;4988;49.238;6.698;2023-08-12T06:00:58;99295.75;;;20.14;100.00
9899;BME280;4988;49.238;6.698;2023-08-12T06:03:24;99294.63;;;20.17;100.00
9899;BME280;4988;49.238;6.698;2023-08-12T06:05:49;99299.25;;;20.26;100.00
9899;BME280;4988;49.238;6.698;2023-08-12T06:08:15;99293.09;;;20.35;100.00
9899;BME280;4988;49.238;6.698;2023-08-12T06:10:41;99288.28;;;20.39;100.00
9899;BME280;4988;49.238;6.698;2023-08-12T06:13:06;99284.91;;;20.47;100.00
9899;BME280;4988;49.238;6.698;2023-08-12T06:15:32;99297.31;;;20.49;100.00
9899;BME280;4988;49.238;6.698;2023-08-12T06:17:58;99295.47;;;20.50;100.00
9899;BME280;4988;49.238;6.698;2023-08-12T06:20:24;99287.16;;;20.41;100.00
9899;BME280;4988;49.238;6.698;2023-08-12T06:22:50;99285.75;;;20.47;100.00
9899;BME280;4988;49.238;6.698;2023-08-12T06:25:16;99289.72;;;20.43;100.00
9899;BME280;4988;49.238;6.698;2023-08-12T06:27:41;99287.75;;;20.45;100.00
9899;BME280;4988;49.238;6.698;2023-08-12T06:30:07;99290.19;;;20.48;100.00
9899;BME280;4988;49.238;6.698;2023-08-12T06:32:34;99287.69;;;20.56;100.00
9899;BME280;4988;49.238;6.698;2023-08-12T06:34:59;99295.72;;;20.68;100.00
9899;BME280;4988;49.238;6.698;2023-08-12T06:37:24;99301.38;;;20.76;100.00
9899;BME280;4988;49.238;6.698;2023-08-12T06:39:50;99305.06;;;20.75;100.00
9899;BME280;4988;49.238;6.698;2023-08-12T06:42:15;99309.41;;;20.87;100.00
9899;BME280;4988;49.238;6.698;2023-08-12T06:44:41;99303.75;;;20.91;100.00
9899;BME280;4988;49.238;6.698;2023-08-12T06:47:06;99287.00;;;20.97;100.00
9899;BME280;4988;49.238;6.698;2023-08-12T06:49:32;99279.38;;;21.12;100.00
9899;BME280;4988;49.238;6.698;2023-08-12T06:51:57;99269.72;;;21.19;100.00
9899;BME280;4988;49.238;6.698;2023-08-12T06:54:22;99258.59;;;21.22;100.00
9899;BME280;4988;49.238;6.698;2023-08-12T06:56:48;99247.22;;;21.28;100.00
9899;BME280;4988;49.238;6.698;2023-08-12T06:59:14;99247.53;;;21.35;100.00
9899;BME280;4988;49.238;6.698;2023-08-12T07:01:39;99259.38;;;21.34;100.00
9899;BME280;4988;49.238;6.698;2023-08-12T07:04:05;99256.47;;;21.26;100.00
9899;BME280;4988;49.238;6.698;2023-08-12T07:06:30;99263.78;;;21.35;100.00
9899;BME280;4988;49.238;6.698;2023-08-12T07:08:55;99265.22;;;21.39;100.00
9899;BME280;4988;49.238;6.698;2023-08-12T07:11:21;99262.41;;;21.50;100.00
9899;BME280;4988;49.238;6.698;2023-08-12T07:13:46;99257.66;;;21.74;100.00
9899;BME280;4988;49.238;6.698;2023-08-12T07:16:12;99274.88;;;21.63;100.00
9899;BME280;4988;49.238;6.698;2023-08-12T07:18:37;99273.88;;;21.64;100.00
9899;BME280;4988;49.238;6.698;2023-08-12T07:21:03;99264.75;;;21.65;100.00
9899;BME280;4988;49.238;6.698;2023-08-12T07:23:30;99256.22;;;21.69;100.00
9899;BME280;4988;49.238;6.698;2023-08-12T07:25:55;99269.66;;;21.91;100.00
9899;BME280;4988;49.238;6.698;2023-08-12T07:28:21;99259.09;;;22.07;100.00
9899;BME280;4988;49.238;6.698;2023-08-12T07:30:48;99263.97;;;22.13;100.00
9899;BME280;4988;49.238;6.698;2023-08-12T07:33:13;99247.69;;;22.13;100.00
9899;BME280;4988;49.238;6.698;2023-08-12T07:35:39;99253.25;;;22.12;100.00
9899;BME280;4988;49.238;6.698;2023-08-12T07:38:04;99261.13;;;22.15;100.00
9899;BME280;4988;49.238;6.698;2023-08-12T07:40:29;99253.41;;;22.20;100.00
9899;BME280;4988;49.238;6.698;2023-08-12T07:42:54;99253.00;;;22.25;100.00
9899;BME280;4988;49.238;6.698;2023-08-12T07:45:21;99250.72;;;22.20;100.00
9899;BME280;4988;49.238;6.698;2023-08-12T07:47:46;99255.41;;;22.28;100.00
9899;BME280;4988;49.238;6.698;2023-08-12T07:50:12;99256.97;;;22.21;100.00
9899;BME280;4988;49.238;6.698;2023-08-12T07:52:37;99243.84;;;22.06;100.00
9899;BME280;4988;49.238;6.698;2023-08-12T07:55:03;99250.69;;;22.00;100.00
9899;BME280;4988;49.238;6.698;2023-08-12T07:57:28;99256.53;;;21.96;100.00
9899;BME280;4988;49.238;6.698;2023-08-12T07:59:53;99268.94;;;21.89;100.00
9899;BME280;4988;49.238;6.698;2023-08-12T08:02:19;99270.63;;;21.80;100.00
9899;BME280;4988;49.238;6.698;2023-08-12T08:04:44;99249.53;;;21.83;100.00
9899;BME280;4988;49.238;6.698;2023-08-12T08:07:10;99253.41;;;21.91;100.00
9899;BME280;4988;49.238;6.698;2023-08-12T08:09:36;99248.25;;;21.97;100.00
9899;BME280;4988;49.238;6.698;2023-08-12T08:12:01;99243.56;;;21.99;100.00
9899;BME280;4988;49.238;6.698;2023-08-12T08:14:27;99254.97;;;22.03;100.00
9899;BME280;4988;49.238;6.698;2023-08-12T08:16:53;99266.09;;;22.00;100.00
9899;BME280;4988;49.238;6.698;2023-08-12T08:19:18;99267.09;;;21.89;100.00
9899;BME280;4988;49.238;6.698;2023-08-12T08:21:43;99267.38;;;21.96;100.00
9899;BME280;4988;49.238;6.698;2023-08-12T08:24:09;99267.09;;;21.89;100.00
9899;BME280;4988;49.238;6.698;2023-08-12T08:26:36;99273.09;;;21.93;100.00
9899;BME280;4988;49.238;6.698;2023-08-12T08:29:01;99276.94;;;21.90;100.00
9899;BME280;4988;49.238;6.698;2023-08-12T08:31:28;99285.94;;;22.00;100.00
9899;BME280;4988;49.238;6.698;2023-08-12T08:33:53;99297.53;;;22.12;100.00
9899;BME280;4988;49.238;6.698;2023-08-12T08:36:18;99289.81;;;22.17;100.00
9899;BME280;4988;49.238;6.698;2023-08-12T08:38:44;99294.78;;;22.32;100.00
9899;BME280;4988;49.238;6.698;2023-08-12T08:41:09;99290.25;;;22.23;100.00
9899;BME280;4988;49.238;6.698;2023-08-12T08:43:36;99302.94;;;22.03;100.00
9899;BME280;4988;49.238;6.698;2023-08-12T08:46:02;99299.31;;;21.92;100.00
9899;BME280;4988;49.238;6.698;2023-08-12T08:48:27;99291.63;;;21.97;100.00
9899;BME280;4988;49.238;6.698;2023-08-12T08:50:53;99291.38;;;22.00;100.00
9899;BME280;4988;49.238;6.698;2023-08-12T08:53:19;99302.06;;;22.02;100.00
9899;BME280;4988;49.238;6.698;2023-08-12T08:55:46;99296.22;;;21.97;100.00
9899;BME280;4988;49.238;6.698;2023-08-12T08:58:11;99302.19;;;22.00;100.00
9899;BME280;4988;49.238;6.698;2023-08-12T09:00:37;99300.78;;;22.06;100.00
9899;BME280;4988;49.238;6.698;2023-08-12T09:03:04;99300.25;;;22.12;100.00
9899;BME280;4988;49.238;6.698;2023-08-12T09:05:30;99299.53;;;22.20;100.00
9899;BME280;4988;49.238;6.698;2023-08-12T09:07:57;99302.50;;;22.37;100.00
9899;BME280;4988;49.238;6.698;2023-08-12T09:10:26;99298.84;;;22.47;100.00
9899;BME280;4988;49.238;6.698;2023-08-12T09:12:53;99307.13;;;22.56;100.00
9899;BME280;4988;49.238;6.698;2023-08-12T09:15:19;99310.09;;;22.62;100.00
9899;BME280;4988;49.238;6.698;2023-08-12T09:17:45;99312.81;;;22.62;100.00
9899;BME280;4988;49.238;6.698;2023-08-12T09:20:10;99327.25;;;22.53;100.00
9899;BME280;4988;49.238;6.698;2023-08-12T09:22:42;99327.84;;;22.57;100.00
9899;BME280;4988;49.238;6.698;2023-08-12T09:25:09;99333.25;;;22.47;100.00
9899;BME280;4988;49.238;6.698;2023-08-12T09:27:36;99331.81;;;22.53;100.00
9899;BME280;4988;49.238;6.698;2023-08-12T09:30:03;99338.69;;;22.47;100.00
9899;BME280;4988;49.238;6.698;2023-08-12T09:32:29;99342.81;;;22.41;100.00
9899;BME280;4988;49.238;6.698;2023-08-12T09:34:55;99344.50;;;22.32;100.00
9899;BME280;4988;49.238;6.698;2023-08-12T09:37:23;99348.47;;;22.19;100.00
9899;BME280;4988;49.238;6.698;2023-08-12T09:39:50;99340.75;;;22.14;100.00
9899;BME280;4988;49.238;6.698;2023-08-12T09:42:16;99335.47;;;22.12;100.00
9899;BME280;4988;49.238;6.698;2023-08-12T09:44:42;99332.75;;;22.32;100.00
9899;BME280;4988;49.238;6.698;2023-08-12T09:47:08;99331.38;;;22.47;100.00
9899;BME280;4988;49.238;6.698;2023-08-12T09:49:34;99324.53;;;22.63;100.00
9899;BME280;4988;49.238;6.698;2023-08-12T09:52:00;99317.09;;;22.75;100.00
9899;BME280;4988;49.238;6.698;2023-08-12T09:54:27;99302.81;;;22.73;100.00
9899;BME280;4988;49.238;6.698;2023-08-12T09:56:56;99293.22;;;22.88;100.00
9899;BME280;4988;49.238;6.698;2023-08-12T09:59:22;99296.22;;;22.95;100.00
9899;BME280;4988;49.238;6.698;2023-08-12T10:01:50;99290.31;;;23.00;100.00
9899;BME280;4988;49.238;6.698;2023-08-12T10:04:21;99294.03;;;22.98;100.00
9899;BME280;4988;49.238;6.698;2023-08-12T10:06:48;99301.19;;;23.00;100.00
9899;BME280;4988;49.238;6.698;2023-08-12T10:09:15;99285.84;;;23.08;100.00
9899;BME280;4988;49.238;6.698;2023-08-12T10:11:45;99275.44;;;23.13;100.00
9899;BME280;4988;49.238;6.698;2023-08-12T10:14:12;99277.59;;;23.10;100.00
9899;BME280;4988;49.238;6.698;2023-08-12T10:16:38;99279.81;;;23.14;100.00
9899;BME280;4988;49.238;6.698;2023-08-12T10:19:04;99272.41;;;23.26;100.00
9899;BME280;4988;49.238;6.698;2023-08-12T10:21:30;99250.25;;;23.21;100.00
9899;BME280;4988;49.238;6.698;2023-08-12T10:23:57;99246.66;;;23.21;100.00
9899;BME280;4988;49.238;6.698;2023-08-12T10:26:24;99237.81;;;23.28;100.00
9899;BME280;4988;49.238;6.698;2023-08-12T10:28:49;99231.44;;;23.38;100.00
9899;BME280;4988;49.238;6.698;2023-08-12T10:31:15;99209.97;;;23.44;99.16
9899;BME280;4988;49.238;6.698;2023-08-12T10:33:41;99219.31;;;23.60;100.00
9899;BME280;4988;49.238;6.698;2023-08-12T10:36:07;99236.09;;;23.73;100.00
9899;BME280;4988;49.238;6.698;2023-08-12T10:38:33;99238.75;;;23.83;96.26
9899;BME280;4988;49.238;6.698;2023-08-12T10:41:21;99228.84;;;23.92;97.23
9899;BME280;4988;49.238;6.698;2023-08-12T10:43:59;99237.41;;;23.97;98.32
9899;BME280;4988;49.238;6.698;2023-08-12T10:46:35;99222.78;;;23.98;92.70
9899;BME280;4988;49.238;6.698;2023-08-12T10:49:08;99218.19;;;24.17;91.62
9899;BME280;4988;49.238;6.698;2023-08-12T10:51:47;99236.75;;;24.39;89.70
9899;BME280;4988;49.238;6.698;2023-08-12T10:54:23;99235.81;;;24.67;90.61
9899;BME280;4988;49.238;6.698;2023-08-12T10:57:08;99238.78;;;24.82;89.57
9899;BME280;4988;49.238;6.698;2023-08-12T11:05:09;99269.72;;;24.54;87.99
9899;BME280;4988;49.238;6.698;2023-08-12T11:10:11;99264.34;;;24.45;89.86
9899;BME280;4988;49.238;6.698;2023-08-12T11:12:38;99273.06;;;24.48;90.40
9899;BME280;4988;49.238;6.698;2023-08-12T11:15:05;99284.88;;;24.39;90.46
9899;BME280;4988;49.238;6.698;2023-08-12T11:17:38;99290.31;;;24.39;90.05
9899;BME280;4988;49.238;6.698;2023-08-12T11:20:09;99280.91;;;24.51;89.91
9899;BME280;4988;49.238;6.698;2023-08-12T11:22:38;99287.50;;;24.49;89.98
9899;BME280;4988;49.238;6.698;2023-08-12T11:25:06;99282.94;;;24.67;89.61
9899;BME280;4988;49.238;6.698;2023-08-12T11:27:45;99274.53;;;24.79;85.71
9899;BME280;4988;49.238;6.698;2023-08-12T11:30:14;99268.78;;;24.64;81.23
9899;BME280;4988;49.238;6.698;2023-08-12T11:32:41;99270.16;;;24.50;84.87
9899;BME280;4988;49.238;6.698;2023-08-12T11:35:08;99278.91;;;24.35;83.84
9899;BME280;4988;49.238;6.698;2023-08-12T11:37:42;99263.66;;;24.42;85.99
9899;BME280;4988;49.238;6.698;2023-08-12T11:40:09;99247.53;;;24.67;86.73
9899;BME280;4988;49.238;6.698;2023-08-12T11:42:36;99243.31;;;24.99;86.24
9899;BME280;4988;49.238;6.698;2023-08-12T11:45:03;99233.22;;;25.18;85.79
9899;BME280;4988;49.238;6.698;2023-08-12T11:47:29;99233.47;;;25.07;82.52
9899;BME280;4988;49.238;6.698;2023-08-12T11:49:54;99229.56;;;25.01;82.24
9899;BME280;4988;49.238;6.698;2023-08-12T11:52:20;99222.59;;;25.07;83.46
9899;BME280;4988;49.238;6.698;2023-08-12T11:54:45;99217.06;;;24.90;82.30
9899;BME280;4988;49.238;6.698;2023-08-12T11:57:11;99222.81;;;24.87;83.39
9899;BME280;4988;49.238;6.698;2023-08-12T11:59:36;99215.88;;;24.93;84.08
9899;BME280;4988;49.238;6.698;2023-08-12T12:02:02;99220.31;;;24.94;86.05
9899;BME280;4988;49.238;6.698;2023-08-12T12:04:31;99227.97;;;24.90;85.39
9899;BME280;4988;49.238;6.698;2023-08-12T12:06:56;99248.03;;;24.89;85.61
9899;BME280;4988;49.238;6.698;2023-08-12T12:09:22;99258.94;;;24.89;85.11
9899;BME280;4988;49.238;6.698;2023-08-12T12:11:52;99252.09;;;24.85;85.61
9899;BME280;4988;49.238;6.698;2023-08-12T12:14:18;99266.38;;;24.87;84.56
9899;BME280;4988;49.238;6.698;2023-08-12T12:16:47;99262.38;;;24.99;85.11
9899;BME280;4988;49.238;6.698;2023-08-12T12:19:21;99247.69;;;25.18;83.14
9899;BME280;4988;49.238;6.698;2023-08-12T12:21:53;99256.22;;;25.50;82.68
9899;BME280;4988;49.238;6.698;2023-08-12T12:24:19;99242.47;;;25.68;79.18
9899;BME280;4988;49.238;6.698;2023-08-12T12:26:46;99245.22;;;25.76;81.70
9899;BME280;4988;49.238;6.698;2023-08-12T12:29:14;99255.25;;;25.67;78.34
9899;BME280;4988;49.238;6.698;2023-08-12T12:31:40;99258.66;;;25.69;76.00
9899;BME280;4988;49.238;6.698;2023-08-12T12:34:07;99262.25;;;25.70;76.54
9899;BME280;4988;49.238;6.698;2023-08-12T12:36:34;99267.88;;;25.68;78.47
9899;BME280;4988;49.238;6.698;2023-08-12T12:39:00;99278.69;;;25.52;79.34
9899;BME280;4988;49.238;6.698;2023-08-12T12:41:25;99280.72;;;25.42;78.30
9899;BME280;4988;49.238;6.698;2023-08-12T12:43:50;99289.25;;;25.20;80.51
9899;BME280;4988;49.238;6.698;2023-08-12T12:46:16;99291.81;;;25.22;80.38
9899;BME280;4988;49.238;6.698;2023-08-12T12:48:44;99290.03;;;25.04;80.02
9899;BME280;4988;49.238;6.698;2023-08-12T12:51:11;99287.63;;;24.83;83.11
9899;BME280;4988;49.238;6.698;2023-08-12T12:53:36;99288.59;;;24.56;81.49
9899;BME280;4988;49.238;6.698;2023-08-12T12:56:02;99295.03;;;24.55;83.67
9899;BME280;4988;49.238;6.698;2023-08-12T12:58:32;99288.13;;;24.61;86.13
9899;BME280;4988;49.238;6.698;2023-08-12T13:01:01;99289.22;;;24.50;84.69
9899;BME280;4988;49.238;6.698;2023-08-12T13:03:27;99287.22;;;24.52;86.00
9899;BME280;4988;49.238;6.698;2023-08-12T13:05:53;99280.44;;;24.56;85.84
9899;BME280;4988;49.238;6.698;2023-08-12T13:08:19;99275.22;;;24.63;85.07
9899;BME280;4988;49.238;6.698;2023-08-12T13:10:44;99272.28;;;24.74;84.43
9899;BME280;4988;49.238;6.698;2023-08-12T13:13:09;99269.25;;;24.59;83.88
9899;BME280;4988;49.238;6.698;2023-08-12T13:15:35;99278.25;;;24.60;84.88